Time;durP1;ratioP1;P1;durP2;ratioP2;P2;SDS_P1;SDS_P2;PMS_P1;PMS_P2;Temp;Humidity;BMP_temperature;BMP_pressure;BME280_temperature;BME280_humidity;BME280_pressure;Samples;Min_cycle;Max_cycle;Signal;HPM_P1;HPM_P2
2022/04/22 00:01:23;;;;;;;13.63;7.35;;;;;;;10.74;68.72;93767.13;5084705;28;20024;-68
2022/04/22 00:03:49;;;;;;;12.23;6.60;;;;;;;10.80;69.52;93760.53;5084981;28;20040;-67
2022/04/22 00:06:14;;;;;;;15.07;7.10;;;;;;;10.77;69.65;93769.97;5084862;28;20024;-68
2022/04/22 00:08:40;;;;;;;13.65;6.97;;;;;;;10.76;69.96;93767.59;5084992;28;20130;-68
2022/04/22 00:13:50;;;;;;;10.95;6.22;;;;;;;10.72;69.71;93751.44;5084880;28;20027;-68
2022/04/22 00:16:17;;;;;;;14.15;6.50;;;;;;;10.70;69.69;93760.88;5084842;28;20028;-68
2022/04/22 00:18:43;;;;;;;13.13;5.85;;;;;;;10.67;69.76;93743.63;5084617;28;20092;-68
2022/04/22 00:21:09;;;;;;;14.20;6.68;;;;;;;10.72;69.64;93746.13;5084687;28;20033;-68
2022/04/22 00:23:34;;;;;;;11.93;5.80;;;;;;;10.70;69.42;93728.88;5084643;28;20039;-69
2022/04/22 00:26:03;;;;;;;16.33;7.05;;;;;;;10.68;69.74;93726.53;5084560;28;20585;-68
2022/04/22 00:28:29;;;;;;;11.15;6.72;;;;;;;10.67;69.83;93722.31;5084238;28;20234;-68
2022/04/22 00:30:54;;;;;;;14.35;7.03;;;;;;;10.66;70.14;93722.63;5084434;28;20051;-69
2022/04/22 00:33:20;;;;;;;14.40;7.07;;;;;;;10.67;70.08;93730.31;5084346;28;20399;-68
2022/04/22 00:35:45;;;;;;;15.88;7.90;;;;;;;10.59;70.30;93718.56;5083145;28;20016;-69
2022/04/22 00:38:11;;;;;;;20.80;8.07;;;;;;;10.58;70.31;93717.00;5084459;28;20073;-68
2022/04/22 00:40:37;;;;;;;14.02;7.20;;;;;;;10.59;70.21;93728.44;5084280;28;20280;-68
2022/04/22 00:43:21;;;;;;;15.45;6.47;;;;;;;10.58;70.12;93732.19;5084225;28;20017;-68
2022/04/22 00:45:48;;;;;;;12.48;7.03;;;;;;;10.55;70.32;93724.84;5084164;28;20029;-68
2022/04/22 00:48:15;;;;;;;10.13;6.05;;;;;;;10.51;70.41;93723.91;5084108;28;20314;-68
2022/04/22 00:50:42;;;;;;;11.65;5.28;;;;;;;10.49;70.56;93723.44;5084259;28;20099;-68
2022/04/22 00:53:08;;;;;;;14.52;6.15;;;;;;;10.48;70.92;93717.28;5084291;28;20021;-68
2022/04/22 00:55:40;;;;;;;12.52;6.20;;;;;;;10.45;70.95;93709.94;5083999;28;20196;-69
2022/04/22 00:58:07;;;;;;;;;;;;;;;10.39;71.03;93709.31;5084378;28;20021;-69
2022/04/22 01:00:33;;;;;;;15.15;6.25;;;;;;;10.37;70.68;93702.75;5083702;28;19915;-68
2022/04/22 01:02:58;;;;;;;16.02;7.47;;;;;;;10.40;71.00;93686.94;5083656;28;20037;-69
2022/04/22 01:10:53;;;;;;;12.63;7.00;;;;;;;10.32;70.92;93694.91;5083753;28;20038;-68
2022/04/22 01:13:20;;;;;;;11.00;5.82;;;;;;;10.28;70.79;93688.59;5083378;28;20137;-69
2022/04/22 01:15:46;;;;;;;13.77;7.03;;;;;;;10.20;70.98;93680.31;5083523;28;20024;-68
2022/04/22 01:18:13;;;;;;;16.63;6.93;;;;;;;10.23;70.48;93674.34;5083751;28;20122;-68
2022/04/22 01:20:38;;;;;;;11.68;7.20;;;;;;;10.21;70.77;93660.56;5083537;28;20020;-68
2022/04/22 01:23:04;;;;;;;12.65;6.45;;;;;;;10.18;70.70;93649.78;5083423;28;20016;-68
2022/04/22 01:25:30;;;;;;;15.93;7.00;;;;;;;10.18;70.82;93634.59;5083226;28;20043;-67
2022/04/22 01:27:56;;;;;;;13.85;7.30;;;;;;;10.17;70.66;93625.00;5083374;28;20064;-68
2022/04/22 01:30:23;;;;;;;12.38;6.80;;;;;;;10.20;70.89;93611.06;5083376;28;20012;-68
2022/04/22 01:32:54;;;;;;;11.55;6.28;;;;;;;10.16;71.18;93615.47;5083114;28;20020;-68
2022/04/22 01:35:20;;;;;;;13.77;7.28;;;;;;;10.14;71.42;93603.56;5083190;28;20022;-68
2022/04/22 01:37:46;;;;;;;12.70;7.22;;;;;;;10.13;71.03;93608.09;5083146;28;20020;-68
2022/04/22 01:40:13;;;;;;;13.13;6.30;;;;;;;10.16;70.99;93602.16;5083042;28;20171;-68
2022/04/22 01:42:39;;;;;;;13.55;6.65;;;;;;;10.13;70.94;93607.31;5083235;28;20242;-68
2022/04/22 01:45:06;;;;;;;14.52;7.15;;;;;;;10.13;71.18;93604.66;5082934;28;20023;-68
2022/04/22 01:47:32;;;;;;;17.25;6.70;;;;;;;10.07;71.15;93613.91;5082715;28;20035;-68
2022/04/22 01:49:57;;;;;;;13.02;7.30;;;;;;;10.01;71.58;93610.63;5083056;28;20024;-68
2022/04/22 01:52:24;;;;;;;18.35;7.45;;;;;;;10.02;71.71;93614.88;5082907;28;20345;-69
2022/04/22 01:54:51;;;;;;;15.73;6.82;;;;;;;10.03;71.67;93630.53;5082848;28;20026;-68
2022/04/22 01:57:17;;;;;;;13.75;7.57;;;;;;;9.97;71.75;93617.66;5082744;28;20024;-68
2022/04/22 01:59:44;;;;;;;17.92;7.50;;;;;;;9.94;71.51;93628.97;5082995;28;20057;-68
2022/04/22 02:02:10;;;;;;;10.75;6.43;;;;;;;9.87;71.48;93644.63;5082820;28;20024;-68
2022/04/22 02:04:35;;;;;;;12.68;6.30;;;;;;;9.70;71.68;93664.03;5082646;28;20048;-69
2022/04/22 02:07:01;;;;;;;10.85;5.70;;;;;;;9.49;72.08;93663.84;5082758;28;20218;-68
2022/04/22 02:09:27;;;;;;;12.60;6.30;;;;;;;9.27;72.99;93678.81;5082582;28;20090;-69
2022/04/22 02:11:53;;;;;;;18.08;7.07;;;;;;;9.12;73.40;93672.03;5082740;28;20062;-69
2022/04/22 02:14:19;;;;;;;10.18;6.00;;;;;;;9.12;73.69;93685.34;5082611;28;20032;-68
2022/04/22 02:16:44;;;;;;;16.75;6.50;;;;;;;9.06;73.77;93683.91;5082596;28;20048;-68
2022/04/22 02:19:10;;;;;;;15.07;7.20;;;;;;;8.91;74.46;93689.63;5082735;28;20032;-67
2022/04/22 02:21:35;;;;;;;11.95;6.80;;;;;;;8.97;74.52;93686.50;5082495;28;20044;-68
2022/04/22 02:24:01;;;;;;;14.18;7.15;;;;;;;9.04;74.75;93681.56;5082383;28;20265;-67
2022/04/22 02:26:26;;;;;;;15.25;8.25;;;;;;;9.11;74.58;93685.63;5082354;28;20031;-68
2022/04/22 02:28:52;;;;;;;15.70;6.90;;;;;;;9.18;74.55;93670.00;5082355;28;20116;-68
2022/04/22 02:31:18;;;;;;;14.20;6.95;;;;;;;9.24;74.74;93661.59;5082514;28;20047;-68
2022/04/22 02:33:44;;;;;;;13.90;7.00;;;;;;;9.31;74.45;93658.47;5082357;28;20332;-68
2022/04/22 02:36:10;;;;;;;14.23;7.50;;;;;;;9.25;74.55;93651.72;5082463;28;20035;-68
2022/04/22 02:38:36;;;;;;;16.80;7.38;;;;;;;9.29;74.42;93652.69;5082301;28;20123;-68
2022/04/22 02:46:31;;;;;;;19.00;7.80;;;;;;;9.37;74.35;93637.84;5082227;28;20079;-68
2022/04/22 02:48:58;;;;;;;15.77;8.27;;;;;;;9.40;74.23;93650.50;5082251;28;20032;-68
2022/04/22 02:51:24;;;;;;;14.48;7.18;;;;;;;9.43;74.39;93647.25;5082247;28;20028;-68
2022/04/22 02:53:50;;;;;;;20.65;11.05;;;;;;;9.45;74.16;93639.75;5082217;28;20024;-68
2022/04/22 02:56:18;;;;;;;18.88;10.80;;;;;;;9.49;73.84;93655.88;5082070;28;20031;-68
2022/04/22 02:58:44;;;;;;;20.10;11.13;;;;;;;9.49;73.93;93650.53;5083324;28;20299;-68
2022/04/22 03:01:09;;;;;;;29.85;12.70;;;;;;;9.50;73.90;93644.91;5086008;28;20027;-67
2022/04/22 03:03:35;;;;;;;31.02;14.52;;;;;;;9.49;73.87;93639.91;5085927;28;20032;-68
2022/04/22 03:06:00;;;;;;;26.38;12.43;;;;;;;9.54;73.59;93632.53;5086043;28;20046;-68
2022/04/22 03:08:25;;;;;;;19.42;11.68;;;;;;;9.51;73.47;93635.06;5085992;28;20021;-68
2022/04/22 03:10:51;;;;;;;22.17;10.75;;;;;;;9.42;73.52;93646.47;5085956;28;20032;-68
2022/04/22 03:13:17;;;;;;;23.23;10.27;;;;;;;9.33;73.74;93637.66;5085701;28;20416;-68
2022/04/22 03:15:42;;;;;;;24.50;10.27;;;;;;;9.35;73.70;93635.50;5085810;28;20338;-68
2022/04/22 03:18:09;;;;;;;17.27;9.23;;;;;;;9.39;73.87;93636.44;5085624;28;20023;-68
2022/04/22 03:20:34;;;;;;;19.48;9.85;;;;;;;9.42;73.63;93656.31;5085424;28;20017;-68
2022/04/22 03:22:59;;;;;;;24.00;9.95;;;;;;;9.39;73.69;93657.72;5085169;28;20146;-67
2022/04/22 03:25:25;;;;;;;21.00;10.13;;;;;;;9.44;73.67;93662.91;5085570;28;20016;-68
2022/04/22 03:27:51;;;;;;;21.02;9.32;;;;;;;9.50;73.69;93662.75;5085452;28;20036;-68
2022/04/22 03:30:17;;;;;;;18.73;11.43;;;;;;;9.53;73.74;93664.78;5085513;28;20028;-68
2022/04/22 03:32:43;;;;;;;18.75;10.70;;;;;;;9.47;73.76;93669.47;5085612;28;20028;-68
2022/04/22 03:35:09;;;;;;;22.00;10.13;;;;;;;9.54;73.80;93666.34;5085525;28;20047;-68
2022/04/22 03:37:34;;;;;;;14.07;8.02;;;;;;;9.57;73.52;93665.75;5085438;28;20319;-68
2022/04/22 03:40:00;;;;;;;19.08;9.30;;;;;;;9.57;73.20;93679.03;5085156;28;20226;-68
2022/04/22 03:42:26;;;;;;;17.05;8.75;;;;;;;9.54;73.60;93687.63;5085477;28;20322;-68
2022/04/22 03:44:52;;;;;;;17.77;8.95;;;;;;;9.27;74.01;93692.09;5085533;28;20024;-68
2022/04/22 03:47:19;;;;;;;14.77;7.35;;;;;;;9.11;74.92;93688.28;5085230;28;20028;-68
2022/04/22 03:49:44;;;;;;;10.27;4.75;;;;;;;8.97;75.22;93683.84;5085155;28;20306;-68
2022/04/22 03:52:10;;;;;;;15.35;6.07;;;;;;;8.91;75.75;93694.94;5085395;28;20055;-68
2022/04/22 03:54:35;;;;;;;11.30;5.30;;;;;;;8.80;76.30;93675.81;5085274;28;20028;-68
2022/04/22 03:59:44;;;;;;;17.23;7.07;;;;;;;8.86;76.94;93681.78;5085268;28;20065;-68
2022/04/22 04:02:10;;;;;;;15.70;6.38;;;;;;;8.94;76.74;93673.06;5085062;28;20296;-68
2022/04/22 04:04:35;;;;;;;11.27;6.15;;;;;;;9.01;76.78;93681.38;5084886;28;20016;-68
2022/04/22 04:07:01;;;;;;;13.23;6.40;;;;;;;9.04;76.68;93678.88;5084957;28;20016;-68
2022/04/22 04:17:39;;;;;;;15.10;6.45;;;;;;;9.29;76.33;93667.88;5084703;28;20161;-68
2022/04/22 04:25:38;;;;;;;14.63;6.45;;;;;;;9.39;74.72;93662.25;5084683;28;20078;-68
2022/04/22 04:28:05;;;;;;;10.07;6.63;;;;;;;9.42;74.69;93657.09;5084335;28;20055;-68
2022/04/22 04:30:31;;;;;;;16.50;7.07;;;;;;;9.47;74.24;93668.69;5084281;28;20179;-68
2022/04/22 04:32:56;;;;;;;13.43;7.15;;;;;;;9.48;74.13;93656.94;5084482;28;20016;-68
2022/04/22 04:35:21;;;;;;;14.25;7.20;;;;;;;9.53;73.73;93662.91;5084212;28;20099;-68
2022/04/22 04:37:47;;;;;;;14.45;7.32;;;;;;;9.62;73.22;93660.25;5084643;28;20192;-68
2022/04/22 04:40:12;;;;;;;14.27;7.00;;;;;;;9.57;74.05;93647.88;5084276;28;20332;-68
2022/04/22 04:42:38;;;;;;;12.95;7.72;;;;;;;9.55;74.32;93649.31;5084241;28;20070;-68
2022/04/22 04:45:04;;;;;;;15.75;7.75;;;;;;;9.59;74.15;93639.59;5084148;28;20028;-68
2022/04/22 04:47:31;;;;;;;13.88;7.07;;;;;;;9.60;74.23;93649.91;5084166;28;20040;-68
2022/04/22 04:49:56;;;;;;;16.90;7.57;;;;;;;9.64;74.33;93648.19;5084160;28;20055;-68
2022/04/22 04:52:21;;;;;;;23.13;8.88;;;;;;;9.61;74.25;93642.75;5083815;28;20035;-68
2022/04/22 04:54:50;;;;;;;17.38;8.80;;;;;;;9.63;73.72;93654.63;5084353;28;20036;-68
2022/04/22 04:57:15;;;;;;;24.95;9.50;;;;;;;9.57;73.67;93657.75;5084007;28;20020;-68
2022/04/22 04:59:42;;;;;;;16.92;7.28;;;;;;;9.43;73.90;93645.34;5083932;28;20055;-68
2022/04/22 05:02:07;;;;;;;15.23;8.00;;;;;;;9.46;73.96;93643.16;5083862;28;20083;-68
2022/04/22 05:04:33;;;;;;;15.73;7.82;;;;;;;9.49;74.00;93646.00;5083805;28;20043;-68
2022/04/22 05:06:58;;;;;;;17.33;8.82;;;;;;;9.53;74.78;93646.16;5083679;28;20092;-67
2022/04/22 05:09:23;;;;;;;15.65;8.38;;;;;;;9.61;74.33;93626.78;5083648;28;20303;-67
2022/04/22 05:11:49;;;;;;;14.82;8.50;;;;;;;9.63;74.23;93621.91;5083750;28;20095;-68
2022/04/22 05:14:14;;;;;;;21.08;8.68;;;;;;;9.64;74.46;93615.50;5083893;28;20027;-68
2022/04/22 05:16:40;;;;;;;16.83;8.80;;;;;;;9.74;74.59;93609.84;5083374;28;20021;-68
2022/04/22 05:19:05;;;;;;;16.90;8.55;;;;;;;9.78;75.19;93613.44;5083670;28;20024;-68
2022/04/22 05:21:31;;;;;;;19.27;8.70;;;;;;;9.79;75.10;93617.69;5082782;28;20050;-69
2022/04/22 05:23:56;;;;;;;18.40;9.13;;;;;;;9.78;75.22;93592.16;5083271;28;20016;-67
2022/04/22 05:26:24;;;;;;;18.52;8.38;;;;;;;9.80;74.77;93576.66;5083405;28;20020;-67
2022/04/22 05:28:49;;;;;;;15.60;9.02;;;;;;;9.80;74.84;93566.00;5083317;28;20044;-67
2022/04/22 05:33:59;;;;;;;15.65;10.65;;;;;;;9.80;73.51;93525.31;5083316;28;20074;-67
2022/04/22 05:36:24;;;;;;;16.90;8.93;;;;;;;9.84;73.14;93518.25;5083230;28;20024;-67
2022/04/22 05:38:52;;;;;;;18.70;9.88;;;;;;;9.90;73.18;93505.56;5083154;28;20031;-66
2022/04/22 05:41:18;;;;;;;18.05;9.88;;;;;;;9.95;72.86;93482.22;5083228;28;20095;-67
2022/04/22 05:43:43;;;;;;;16.42;8.60;;;;;;;10.02;72.50;93487.06;5083139;28;20040;-67
2022/04/22 05:46:09;;;;;;;17.48;8.60;;;;;;;10.08;72.04;93480.47;5082854;28;20199;-68
2022/04/22 05:48:34;;;;;;;16.67;8.75;;;;;;;10.17;71.34;93483.84;5082914;28;20031;-67
2022/04/22 05:51:00;;;;;;;12.52;7.22;;;;;;;10.19;70.19;93465.69;5082899;28;20031;-68
2022/04/22 05:53:25;;;;;;;14.93;6.75;;;;;;;10.21;70.06;93468.03;5082939;28;20028;-67
2022/04/22 05:55:51;;;;;;;11.70;6.68;;;;;;;10.28;69.36;93455.00;5082803;28;20028;-67
2022/04/22 05:58:17;;;;;;;16.65;7.72;;;;;;;10.40;69.59;93441.81;5082851;28;20020;-66
2022/04/22 06:00:42;;;;;;;13.27;8.18;;;;;;;10.44;69.00;93449.91;5082642;28;20024;-66
2022/04/22 06:03:08;;;;;;;12.50;6.80;;;;;;;10.48;68.07;93466.81;5082727;28;20377;-67
2022/04/22 06:05:33;;;;;;;11.55;6.03;;;;;;;10.58;68.33;93458.50;5082934;28;20028;-67
2022/04/22 06:10:49;;;;;;;13.88;7.28;;;;;;;10.74;67.64;93441.91;5082869;28;20089;-67
2022/04/22 06:13:15;;;;;;;9.45;6.63;;;;;;;10.81;67.73;93447.53;5082767;28;20024;-67
2022/04/22 06:15:40;;;;;;;13.05;6.75;;;;;;;10.91;67.63;93449.00;5082574;28;20024;-69
2022/04/22 06:18:06;;;;;;;16.85;7.00;;;;;;;10.98;67.10;93436.72;5082703;28;20338;-67
2022/04/22 06:20:31;;;;;;;9.55;6.90;;;;;;;10.97;66.41;93445.84;5082627;28;20309;-67
2022/04/22 06:22:58;;;;;;;12.40;7.97;;;;;;;11.00;66.11;93429.19;5082594;28;20016;-67
2022/04/22 06:25:24;;;;;;;12.77;7.22;;;;;;;11.04;65.53;93424.75;5082414;28;20016;-70
2022/04/22 06:27:49;;;;;;;14.25;6.82;;;;;;;11.12;66.87;93431.13;5082507;28;20330;-69
2022/04/22 06:30:18;;;;;;;11.52;7.82;;;;;;;11.20;66.89;93422.28;5082740;28;20326;-70
2022/04/22 06:32:45;;;;;;;15.27;7.20;;;;;;;11.26;66.65;93424.78;5081781;28;20040;-70
2022/04/22 06:35:11;;;;;;;15.60;7.25;;;;;;;11.24;66.10;93428.53;5082170;28;20048;-68
2022/04/22 06:37:45;;;;;;;21.45;6.68;;;;;;;11.29;65.35;93440.09;5082225;28;20021;-68
2022/04/22 06:45:47;;;;;;;11.35;6.22;;;;;;;11.31;64.35;93436.00;5082204;28;20023;-78
2022/04/22 06:48:18;;;;;;;14.68;6.38;;;;;;;11.36;64.19;93453.72;5082313;28;20025;-74
2022/04/22 06:50:48;;;;;;;10.43;5.83;;;;;;;11.42;64.56;93465.75;5081988;28;20066;-74
2022/04/22 06:53:16;;;;;;;14.13;7.85;;;;;;;11.27;66.78;93463.66;5082163;28;20271;-74
2022/04/22 06:55:42;;;;;;;15.52;7.15;;;;;;;11.22;67.15;93456.66;5081957;28;20315;-74
2022/04/22 06:58:13;;;;;;;11.35;6.47;;;;;;;11.18;66.73;93451.19;5082027;28;20062;-74
2022/04/22 07:00:39;;;;;;;15.00;8.40;;;;;;;11.25;67.47;93437.31;5082020;28;20035;-74
2022/04/22 07:03:06;;;;;;;12.82;7.22;;;;;;;11.40;67.21;93438.59;5082123;28;20028;-74
2022/04/22 07:05:36;;;;;;;13.63;7.60;;;;;;;11.50;67.50;93443.53;5081927;28;20032;-78
2022/04/22 07:08:03;;;;;;;12.13;6.88;;;;;;;11.60;67.55;93424.44;5081998;28;20020;-77
2022/04/22 07:10:33;;;;;;;12.75;8.00;;;;;;;11.76;67.23;93431.81;5081943;28;20039;-79
2022/04/22 07:12:59;;;;;;;13.32;7.38;;;;;;;11.87;66.66;93432.19;5081935;28;20054;-79
2022/04/22 07:15:25;;;;;;;11.35;7.30;;;;;;;12.03;65.94;93425.88;5081846;28;20020;-79
2022/04/22 07:17:51;;;;;;;13.63;8.70;;;;;;;12.10;66.22;93428.00;5081835;28;20043;-80
2022/04/22 07:20:17;;;;;;;16.67;8.10;;;;;;;12.06;66.99;93434.34;5081919;28;20024;-81
2022/04/22 07:22:43;;;;;;;21.38;9.02;;;;;;;12.15;65.85;93445.69;5081824;28;20025;-79
2022/04/22 07:25:10;;;;;;;15.65;8.80;;;;;;;12.27;64.61;93437.69;5082045;28;20257;-79
2022/04/22 07:27:41;;;;;;;13.55;8.35;;;;;;;12.10;65.89;93440.59;5062719;28;20101;-79
2022/04/22 07:30:11;;;;;;;14.90;7.78;;;;;;;12.15;64.76;93446.50;5079826;28;20337;-79
2022/04/22 07:32:37;;;;;;;15.65;8.80;;;;;;;12.16;65.07;93445.38;5080172;28;20020;-80
2022/04/22 07:35:13;;;;;;;38.85;21.65;;;;;;;12.22;65.74;93433.34;5080107;28;20024;-81
2022/04/22 07:37:44;;;;;;;17.42;7.10;;;;;;;12.26;64.90;93446.06;5080755;28;20318;-78
2022/04/22 07:40:09;;;;;;;8.73;5.97;;;;;;;12.44;64.35;93434.81;5081536;28;20021;-79
2022/04/22 07:42:36;;;;;;;14.70;6.35;;;;;;;12.63;62.66;93433.47;5081861;28;20030;-79
2022/04/22 07:47:48;;;;;;;11.23;6.45;;;;;;;12.96;61.79;93421.81;5085469;28;20342;-78
2022/04/22 07:50:15;;;;;;;10.52;6.82;;;;;;;13.15;61.45;93423.91;5085129;28;20009;-79
2022/04/22 07:52:45;;;;;;;10.18;5.78;;;;;;;13.32;60.59;93428.22;5085215;28;20091;-79
2022/04/22 07:55:12;;;;;;;11.35;5.72;;;;;;;13.50;60.31;93436.75;5085316;28;20349;-78
2022/04/22 07:57:40;;;;;;;13.40;5.07;;;;;;;13.72;59.35;93435.38;5085133;28;20020;-76
2022/04/22 08:00:06;;;;;;;11.95;6.13;;;;;;;13.89;59.19;93434.31;5084935;28;20024;-70
2022/04/22 08:02:31;;;;;;;14.13;5.38;;;;;;;14.11;58.60;93457.06;5084683;28;20245;-70
2022/04/22 08:04:57;;;;;;;8.43;4.68;;;;;;;14.33;57.19;93455.69;5084966;28;20028;-72
2022/04/22 08:07:22;;;;;;;8.70;4.53;;;;;;;14.49;56.06;93467.22;5084993;28;20032;-72
2022/04/22 08:09:47;;;;;;;12.73;5.20;;;;;;;14.56;55.94;93461.25;5084851;28;20020;-71
2022/04/22 08:12:14;;;;;;;10.23;5.32;;;;;;;14.59;55.06;93461.34;5084299;28;20020;-70
2022/04/22 08:14:40;;;;;;;13.60;4.32;;;;;;;14.50;54.64;93463.38;5083307;28;20056;-70
2022/04/22 08:17:07;;;;;;;9.95;4.93;;;;;;;14.36;55.50;93452.31;5084008;28;20016;-70
2022/04/22 08:19:33;;;;;;;13.02;4.97;;;;;;;14.56;54.90;93456.66;5084551;28;20278;-70
2022/04/22 08:21:59;;;;;;;8.35;4.63;;;;;;;14.74;55.91;93446.34;5084301;28;20035;-70
2022/04/22 08:24:25;;;;;;;13.82;4.78;;;;;;;14.86;55.09;93437.41;5084343;28;20025;-70
2022/04/22 08:26:50;;;;;;;10.63;5.00;;;;;;;14.99;54.36;93436.16;5084349;28;20020;-70
2022/04/22 08:29:16;;;;;;;10.00;5.30;;;;;;;15.13;54.49;93434.91;5084435;28;20040;-70
2022/04/22 08:31:42;;;;;;;10.27;4.60;;;;;;;15.25;54.50;93445.53;5084201;28;20323;-70
2022/04/22 08:34:16;;;;;;;8.60;4.85;;;;;;;15.37;54.09;93453.44;5084290;28;20035;-70
2022/04/22 08:36:43;;;;;;;11.50;4.22;;;;;;;15.44;53.81;93434.78;5084020;28;20318;-70
2022/04/22 08:39:09;;;;;;;7.93;4.57;;;;;;;15.57;52.76;93432.75;5083726;28;20028;-69
2022/04/22 08:41:36;;;;;;;10.20;3.97;;;;;;;15.68;52.89;93429.47;5083051;28;20048;-69
2022/04/22 08:44:02;;;;;;;10.70;4.88;;;;;;;15.78;52.80;93418.94;5083042;28;20024;-69
2022/04/22 08:52:00;;;;;;;10.48;4.55;;;;;;;16.09;52.26;93414.50;5083834;28;20024;-69
2022/04/22 08:54:27;;;;;;;10.35;4.15;;;;;;;16.21;51.50;93406.25;5083988;28;20024;-69
2022/04/22 08:56:54;;;;;;;8.77;4.40;;;;;;;16.34;51.31;93406.06;5081743;28;20020;-69
2022/04/22 08:59:20;;;;;;;9.48;4.28;;;;;;;16.44;50.29;93414.31;5082663;28;20092;-69
2022/04/22 09:01:46;;;;;;;8.90;3.75;;;;;;;16.60;49.88;93400.72;5082474;28;20028;-70
2022/04/22 09:04:11;;;;;;;10.10;3.65;;;;;;;16.78;49.21;93394.81;5082184;28;20361;-70
2022/04/22 09:06:37;;;;;;;7.15;4.00;;;;;;;16.94;48.25;93386.63;5082304;28;20084;-69
2022/04/22 09:09:06;;;;;;;7.60;4.07;;;;;;;17.08;47.81;93375.25;5082235;28;20032;-69
2022/04/22 09:11:37;;;;;;;10.48;3.95;;;;;;;17.17;46.98;93381.13;5083034;28;20032;-69
2022/04/22 09:14:02;;;;;;;7.90;3.95;;;;;;;17.33;47.13;93383.63;5083512;28;20218;-69
2022/04/22 09:16:28;;;;;;;9.10;4.10;;;;;;;17.35;45.70;93378.66;5083385;28;20051;-69
2022/04/22 09:19:04;;;;;;;9.68;3.35;;;;;;;17.41;45.75;93372.56;5083415;28;20082;-69
2022/04/22 09:21:30;;;;;;;6.30;3.33;;;;;;;17.34;45.51;93377.88;5083541;28;20274;-69
2022/04/22 09:23:55;;;;;;;8.93;3.60;;;;;;;17.40;46.13;93381.00;5083281;28;20065;-69
2022/04/22 09:26:22;;;;;;;11.43;4.15;;;;;;;17.58;46.57;93375.81;5083520;28;20042;-69
2022/04/22 09:29:01;;;;;;;6.00;3.05;;;;;;;17.50;45.11;93382.28;5083293;28;20044;-69
2022/04/22 09:31:28;;;;;;;10.52;4.00;;;;;;;17.61;45.79;93380.50;5083272;28;20027;-69
2022/04/22 09:33:54;;;;;;;6.30;3.55;;;;;;;17.76;45.91;93381.41;5083094;28;20310;-70
2022/04/22 09:45:09;;;;;;;8.68;3.35;;;;;;;17.56;44.56;93359.25;5083109;28;20031;-69
2022/04/22 09:47:36;;;;;;;5.35;3.63;;;;;;;17.30;45.70;93374.38;5082883;28;20315;-69
2022/04/22 09:50:23;;;;;;;11.30;3.85;;;;;;;17.56;45.94;93346.53;5083002;28;20070;-69
2022/04/22 09:52:48;;;;;;;10.40;3.88;;;;;;;17.66;45.51;93355.88;5083212;28;20024;-70
2022/04/22 09:55:16;;;;;;;10.02;3.92;;;;;;;17.94;45.04;93349.25;5082856;28;20257;-69
2022/04/22 09:57:58;;;;;;;10.80;3.53;;;;;;;18.18;44.59;93346.00;5082917;28;20039;-70
2022/04/22 10:00:30;;;;;;;13.50;5.93;;;;;;;18.28;44.08;93319.47;5082535;28;20024;-69
2022/04/22 10:02:56;;;;;;;15.38;4.38;;;;;;;18.22;44.28;93333.31;5082865;28;20020;-70
2022/04/22 10:05:24;;;;;;;13.25;3.50;;;;;;;18.19;43.41;93323.25;5082882;28;20107;-69
2022/04/22 10:07:55;;;;;;;11.00;4.05;;;;;;;17.99;43.67;93321.94;5082488;28;20044;-69
2022/04/22 10:10:25;;;;;;;8.27;3.55;;;;;;;18.10;43.72;93322.81;5082769;28;20054;-70
2022/04/22 10:12:54;;;;;;;7.30;3.60;;;;;;;18.33;44.44;93319.91;5082806;28;20326;-69
2022/04/22 10:15:25;;;;;;;8.38;3.33;;;;;;;18.44;42.92;93304.56;5064868;28;20306;-69
2022/04/22 10:17:52;;;;;;;6.53;3.30;;;;;;;18.67;42.13;93305.47;5082896;28;20020;-69
2022/04/22 10:20:19;;;;;;;10.00;3.17;;;;;;;18.91;41.82;93302.16;5082525;28;20449;-69
2022/04/22 10:22:48;;;;;;;12.40;3.63;;;;;;;19.08;42.08;93294.50;5082326;28;20032;-69
2022/04/22 10:25:15;;;;;;;7.53;3.13;;;;;;;19.32;41.29;93287.63;5082468;28;20036;-70
2022/04/22 10:27:42;;;;;;;8.60;3.67;;;;;;;19.44;40.15;93296.16;5082135;28;20068;-69
2022/04/22 10:30:10;;;;;;;7.85;2.65;;;;;;;19.43;40.54;93267.56;5082488;28;20082;-69
2022/04/22 10:32:39;;;;;;;8.95;3.30;;;;;;;19.61;40.98;93261.44;5082416;28;20241;-70
2022/04/22 10:35:05;;;;;;;12.98;4.15;;;;;;;19.74;40.15;93275.38;5082303;28;20222;-70
2022/04/22 10:37:33;;;;;;;10.75;3.58;;;;;;;19.53;40.64;93274.16;5082055;28;20032;-70
2022/04/22 10:39:58;;;;;;;11.73;2.65;;;;;;;19.62;42.29;93279.19;5082244;28;20021;-69
2022/04/22 10:42:35;;;;;;;7.03;3.30;;;;;;;19.91;40.14;93269.22;5082395;28;20031;-69
2022/04/22 10:47:51;;;;;;;10.75;3.08;;;;;;;20.26;39.35;93264.94;5082241;28;20065;-69
2022/04/22 10:50:34;;;;;;;9.63;3.60;;;;;;;20.43;38.67;93279.59;5082027;28;20024;-70
2022/04/22 10:53:23;;;;;;;9.88;3.63;;;;;;;20.62;39.39;93257.53;5081909;28;20031;-69
2022/04/22 10:55:49;;;;;;;11.25;3.13;;;;;;;20.68;38.84;93279.59;5082138;28;20029;-69
2022/04/22 10:58:17;;;;;;;10.27;3.92;;;;;;;20.91;39.00;93276.41;5081949;28;20070;-70
2022/04/22 11:00:54;;;;;;;7.40;3.00;;;;;;;21.06;39.34;93269.00;5081743;28;20139;-70
2022/04/22 11:03:36;;;;;;;7.10;3.30;;;;;;;21.00;37.03;93257.81;5082135;28;20020;-70
2022/04/22 11:06:05;;;;;;;;;;;;;;;20.84;37.21;93257.47;5082355;28;20319;-69
2022/04/22 11:08:37;;;;;;;10.73;3.72;;;;;;;20.95;37.72;93249.31;5081946;28;19927;-69
2022/04/22 11:11:02;;;;;;;12.25;3.50;;;;;;;21.08;37.15;93255.06;5081894;28;20031;-70
2022/04/22 11:13:30;;;;;;;7.07;3.08;;;;;;;21.27;38.14;93257.28;5081889;28;20029;-70
2022/04/22 11:15:57;;;;;;;7.70;2.80;;;;;;;21.13;36.40;93241.13;5081715;28;20028;-69
2022/04/22 11:18:22;;;;;;;11.88;2.72;;;;;;;20.90;36.93;93228.81;5082042;28;20025;-69
2022/04/22 11:20:52;;;;;;;8.80;4.55;;;;;;;20.83;38.05;93243.16;5084354;28;20063;-69
2022/04/22 11:23:17;;;;;;;9.52;2.92;;;;;;;21.10;38.47;93256.19;5085658;28;20044;-70
2022/04/22 11:25:44;;;;;;;8.35;3.08;;;;;;;21.31;36.25;93241.00;5085538;28;20070;-69
2022/04/22 11:28:10;;;;;;;7.68;3.20;;;;;;;21.31;36.51;93239.06;5085348;28;20037;-70
2022/04/22 11:30:36;;;;;;;7.50;3.03;;;;;;;21.53;37.26;93249.81;5085527;28;20027;-70
2022/04/22 11:33:23;;;;;;;8.82;2.97;;;;;;;21.80;35.34;93225.59;5085536;28;20337;-69
2022/04/22 11:35:53;;;;;;;6.35;3.15;;;;;;;21.80;36.01;93217.47;5067370;28;20078;-69
2022/04/22 11:38:19;;;;;;;8.13;2.90;;;;;;;21.81;36.08;93227.91;5085170;28;20032;-70
2022/04/22 11:40:49;;;;;;;14.50;3.30;;;;;;;21.77;36.19;93218.25;5085214;28;20032;-70
2022/04/22 11:43:15;;;;;;;13.43;3.03;;;;;;;21.88;36.72;93207.31;5085154;28;20029;-70
2022/04/22 11:45:44;;;;;;;9.00;2.60;;;;;;;22.16;35.96;93200.88;5084954;28;20103;-70
2022/04/22 11:48:11;;;;;;;6.78;3.20;;;;;;;22.41;34.83;93200.66;5085229;28;20251;-70
2022/04/22 11:50:42;;;;;;;4.80;2.67;;;;;;;22.73;35.08;93205.72;5085132;28;20027;-70
2022/04/22 11:53:14;;;;;;;6.32;2.63;;;;;;;22.97;33.87;93187.56;5084951;28;20318;-70
2022/04/22 11:55:43;;;;;;;12.65;2.60;;;;;;;23.21;32.87;93187.69;5085038;28;20016;-70
2022/04/22 11:58:10;;;;;;;13.52;3.25;;;;;;;23.21;32.95;93187.69;5084993;28;20028;-70
2022/04/22 12:06:06;;;;;;;13.70;3.33;;;;;;;23.75;32.95;93184.16;5084869;28;20054;-70
2022/04/22 12:08:33;;;;;;;5.25;2.53;;;;;;;23.86;32.15;93179.34;5084914;28;20055;-70
2022/04/22 12:10:58;;;;;;;7.93;2.50;;;;;;;24.03;31.52;93182.94;5084752;28;20036;-69
2022/04/22 12:13:25;;;;;;;8.55;2.97;;;;;;;24.16;31.62;93185.84;5084832;28;20020;-70
2022/04/22 12:15:50;;;;;;;13.32;3.20;;;;;;;24.27;31.36;93191.88;5084503;28;20310;-70
2022/04/22 12:18:30;;;;;;;12.13;2.72;;;;;;;24.26;29.55;93189.56;5084439;28;20040;-70
2022/04/22 12:20:56;;;;;;;6.25;2.38;;;;;;;24.07;29.96;93166.56;5084456;28;20028;-70
2022/04/22 12:23:22;;;;;;;4.95;2.58;;;;;;;23.72;30.29;93147.66;5084819;28;20021;-70
2022/04/22 12:25:55;;;;;;;12.38;2.63;;;;;;;23.47;30.99;93156.25;5084375;28;20024;-70
2022/04/22 12:28:21;;;;;;;15.63;3.40;;;;;;;23.27;31.25;93148.00;5084147;28;20045;-70
2022/04/22 12:30:46;;;;;;;12.20;2.95;;;;;;;23.42;31.94;93134.94;5084283;28;20311;-70
2022/04/22 12:33:25;;;;;;;9.02;2.67;;;;;;;23.69;31.80;93134.91;5084513;28;20218;-70
2022/04/22 12:36:11;;;;;;;9.07;2.40;;;;;;;24.01;32.14;93142.53;5084330;28;20021;-70